sensor_id;sensor_type;location;lat;lon;timestamp;P1;durP1;ratioP1;P2;durP2;ratioP2
1747;SDS011;871;47.034;15.394;2023-03-01T05:02:33;62.50;;;14.90;;
1747;SDS011;871;47.034;15.394;2023-03-01T05:05:00;60.08;;;13.93;;
1747;SDS011;871;47.034;15.394;2023-03-01T05:07:26;55.33;;;13.43;;
1747;SDS011;871;47.034;15.394;2023-03-01T05:09:53;58.40;;;12.90;;
1747;SDS011;871;47.034;15.394;2023-03-01T05:12:19;59.55;;;13.93;;
1747;SDS011;871;47.034;15.394;2023-03-01T05:14:47;59.35;;;15.05;;
1747;SDS011;871;47.034;15.394;2023-03-01T05:17:13;64.28;;;16.10;;
1747;SDS011;871;47.034;15.394;2023-03-01T05:19:39;58.42;;;13.48;;
1747;SDS011;871;47.034;15.394;2023-03-01T05:22:07;83.82;;;22.08;;
1747;SDS011;871;47.034;15.394;2023-03-01T05:24:34;78.30;;;23.73;;
1747;SDS011;871;47.034;15.394;2023-03-01T05:27:01;77.00;;;21.08;;
1747;SDS011;871;47.034;15.394;2023-03-01T05:29:28;65.53;;;17.67;;
1747;SDS011;871;47.034;15.394;2023-03-01T05:31:57;63.40;;;17.20;;
1747;SDS011;871;47.034;15.394;2023-03-01T05:34:24;60.28;;;16.88;;
1747;SDS011;871;47.034;15.394;2023-03-01T05:36:51;61.78;;;14.25;;
1747;SDS011;871;47.034;15.394;2023-03-01T05:39:19;55.67;;;12.52;;
1747;SDS011;871;47.034;15.394;2023-03-01T05:41:46;57.75;;;13.95;;
1747;SDS011;871;47.034;15.394;2023-03-01T05:44:13;56.60;;;14.15;;
1747;SDS011;871;47.034;15.394;2023-03-01T05:46:39;59.72;;;13.82;;
1747;SDS011;871;47.034;15.394;2023-03-01T05:49:05;59.60;;;14.27;;
1747;SDS011;871;47.034;15.394;2023-03-01T05:51:31;56.75;;;12.85;;
1747;SDS011;871;47.034;15.394;2023-03-01T05:53:58;54.35;;;13.25;;
1747;SDS011;871;47.034;15.394;2023-03-01T05:56:24;56.78;;;13.27;;
1747;SDS011;871;47.034;15.394;2023-03-01T05:58:50;61.47;;;14.38;;
1747;SDS011;871;47.034;15.394;2023-03-01T06:01:16;54.97;;;14.00;;
1747;SDS011;871;47.034;15.394;2023-03-01T06:03:43;57.50;;;13.48;;
1747;SDS011;871;47.034;15.394;2023-03-01T06:06:09;62.00;;;14.80;;
1747;SDS011;871;47.034;15.394;2023-03-01T06:08:35;56.40;;;13.70;;
1747;SDS011;871;47.034;15.394;2023-03-01T06:11:01;63.05;;;14.73;;
1747;SDS011;871;47.034;15.394;2023-03-01T06:13:27;63.47;;;13.57;;
1747;SDS011;871;47.034;15.394;2023-03-01T06:15:54;53.65;;;10.90;;
1747;SDS011;871;47.034;15.394;2023-03-01T06:18:20;52.40;;;11.38;;
1747;SDS011;871;47.034;15.394;2023-03-01T06:20:56;54.67;;;11.52;;
1747;SDS011;871;47.034;15.394;2023-03-01T06:23:23;51.47;;;12.18;;
1747;SDS011;871;47.034;15.394;2023-03-01T06:25:49;56.05;;;13.02;;
1747;SDS011;871;47.034;15.394;2023-03-01T06:28:15;53.28;;;12.40;;
1747;SDS011;871;47.034;15.394;2023-03-01T06:30:41;52.50;;;12.00;;
1747;SDS011;871;47.034;15.394;2023-03-01T06:33:07;52.83;;;11.25;;
1747;SDS011;871;47.034;15.394;2023-03-01T06:35:33;47.35;;;10.77;;
1747;SDS011;871;47.034;15.394;2023-03-01T06:38:00;49.75;;;10.90;;
1747;SDS011;871;47.034;15.394;2023-03-01T06:40:27;53.88;;;11.82;;
1747;SDS011;871;47.034;15.394;2023-03-01T06:42:53;50.15;;;11.00;;
1747;SDS011;871;47.034;15.394;2023-03-01T06:45:19;55.47;;;11.52;;
1747;SDS011;871;47.034;15.394;2023-03-01T06:47:46;52.97;;;12.27;;
1747;SDS011;871;47.034;15.394;2023-03-01T06:50:13;52.25;;;10.45;;
1747;SDS011;871;47.034;15.394;2023-03-01T06:52:39;56.83;;;12.68;;
1747;SDS011;871;47.034;15.394;2023-03-01T06:55:06;56.80;;;12.50;;
1747;SDS011;871;47.034;15.394;2023-03-01T06:57:32;55.28;;;12.55;;
1747;SDS011;871;47.034;15.394;2023-03-01T06:59:58;49.75;;;11.05;;
1747;SDS011;871;47.034;15.394;2023-03-01T07:02:24;50.40;;;11.73;;
1747;SDS011;871;47.034;15.394;2023-03-01T07:04:50;50.03;;;10.65;;
1747;SDS011;871;47.034;15.394;2023-03-01T07:07:16;52.95;;;11.40;;
1747;SDS011;871;47.034;15.394;2023-03-01T07:09:43;53.90;;;11.27;;
1747;SDS011;871;47.034;15.394;2023-03-01T07:12:09;50.97;;;10.65;;
1747;SDS011;871;47.034;15.394;2023-03-01T07:14:35;57.60;;;11.68;;
1747;SDS011;871;47.034;15.394;2023-03-01T07:17:01;49.45;;;10.65;;
1747;SDS011;871;47.034;15.394;2023-03-01T07:19:27;48.92;;;11.05;;
1747;SDS011;871;47.034;15.394;2023-03-01T07:21:53;55.08;;;12.98;;
1747;SDS011;871;47.034;15.394;2023-03-01T07:24:20;50.20;;;11.85;;
1747;SDS011;871;47.034;15.394;2023-03-01T07:26:50;58.08;;;10.93;;
1747;SDS011;871;47.034;15.394;2023-03-01T07:29:16;55.28;;;11.95;;
1747;SDS011;871;47.034;15.394;2023-03-01T07:31:43;51.65;;;11.30;;
1747;SDS011;871;47.034;15.394;2023-03-01T07:34:09;49.42;;;10.90;;
1747;SDS011;871;47.034;15.394;2023-03-01T07:36:36;49.28;;;9.80;;
1747;SDS011;871;47.034;15.394;2023-03-01T07:39:02;50.28;;;10.80;;
1747;SDS011;871;47.034;15.394;2023-03-01T07:41:29;50.45;;;10.00;;
1747;SDS011;871;47.034;15.394;2023-03-01T07:43:56;53.17;;;11.23;;
1747;SDS011;871;47.034;15.394;2023-03-01T07:46:22;50.47;;;10.35;;
1747;SDS011;871;47.034;15.394;2023-03-01T07:48:48;55.38;;;10.55;;
1747;SDS011;871;47.034;15.394;2023-03-01T07:51:14;50.13;;;10.95;;
1747;SDS011;871;47.034;15.394;2023-03-01T07:53:40;53.47;;;11.10;;
1747;SDS011;871;47.034;15.394;2023-03-01T07:56:10;53.05;;;11.98;;
1747;SDS011;871;47.034;15.394;2023-03-01T07:58:37;50.28;;;9.80;;
1747;SDS011;871;47.034;15.394;2023-03-01T08:01:08;53.85;;;11.60;;
1747;SDS011;871;47.034;15.394;2023-03-01T08:03:34;49.63;;;11.43;;
1747;SDS011;871;47.034;15.394;2023-03-01T08:06:01;51.15;;;11.40;;
1747;SDS011;871;47.034;15.394;2023-03-01T08:08:28;51.92;;;11.98;;
1747;SDS011;871;47.034;15.394;2023-03-01T08:11:00;52.80;;;11.68;;
1747;SDS011;871;47.034;15.394;2023-03-01T08:13:27;59.65;;;13.50;;
1747;SDS011;871;47.034;15.394;2023-03-01T08:15:53;48.55;;;11.02;;
1747;SDS011;871;47.034;15.394;2023-03-01T08:18:20;53.28;;;11.63;;
1747;SDS011;871;47.034;15.394;2023-03-01T08:20:46;53.50;;;11.07;;
1747;SDS011;871;47.034;15.394;2023-03-01T08:23:14;50.60;;;11.98;;
1747;SDS011;871;47.034;15.394;2023-03-01T08:25:40;58.23;;;12.10;;
1747;SDS011;871;47.034;15.394;2023-03-01T08:28:07;52.10;;;12.15;;
1747;SDS011;871;47.034;15.394;2023-03-01T08:30:33;60.97;;;13.27;;
1747;SDS011;871;47.034;15.394;2023-03-01T08:32:59;52.38;;;11.52;;
1747;SDS011;871;47.034;15.394;2023-03-01T08:35:25;56.05;;;14.75;;
1747;SDS011;871;47.034;15.394;2023-03-01T08:37:53;51.10;;;11.07;;
1747;SDS011;871;47.034;15.394;2023-03-01T08:40:19;52.92;;;12.18;;
1747;SDS011;871;47.034;15.394;2023-03-01T08:42:45;53.65;;;12.45;;
1747;SDS011;871;47.034;15.394;2023-03-01T08:45:11;59.92;;;13.60;;
1747;SDS011;871;47.034;15.394;2023-03-01T08:47:39;52.05;;;10.27;;
1747;SDS011;871;47.034;15.394;2023-03-01T08:50:05;54.00;;;12.88;;
1747;SDS011;871;47.034;15.394;2023-03-01T08:52:32;55.50;;;13.48;;
1747;SDS011;871;47.034;15.394;2023-03-01T08:54:58;61.67;;;13.43;;
1747;SDS011;871;47.034;15.394;2023-03-01T08:57:26;58.90;;;11.70;;
1747;SDS011;871;47.034;15.394;2023-03-01T08:59:52;51.22;;;12.13;;
1747;SDS011;871;47.034;15.394;2023-03-01T09:02:21;52.38;;;12.15;;
1747;SDS011;871;47.034;15.394;2023-03-01T09:04:47;56.45;;;12.82;;
1747;SDS011;871;47.034;15.394;2023-03-01T09:07:13;54.15;;;11.40;;
1747;SDS011;871;47.034;15.394;2023-03-01T09:09:39;53.25;;;12.60;;
1747;SDS011;871;47.034;15.394;2023-03-01T09:12:05;54.08;;;13.05;;
1747;SDS011;871;47.034;15.394;2023-03-01T09:14:31;54.05;;;12.30;;
1747;SDS011;871;47.034;15.394;2023-03-01T09:16:57;53.38;;;11.27;;
1747;SDS011;871;47.034;15.394;2023-03-01T09:19:27;56.30;;;12.93;;
1747;SDS011;871;47.034;15.394;2023-03-01T09:21:53;50.53;;;11.73;;
1747;SDS011;871;47.034;15.394;2023-03-01T09:24:21;51.90;;;11.20;;
1747;SDS011;871;47.034;15.394;2023-03-01T09:26:48;51.65;;;11.30;;
1747;SDS011;871;47.034;15.394;2023-03-01T09:29:16;50.03;;;11.80;;
1747;SDS011;871;47.034;15.394;2023-03-01T09:31:44;57.25;;;13.32;;
1747;SDS011;871;47.034;15.394;2023-03-01T09:34:10;58.22;;;12.65;;
1747;SDS011;871;47.034;15.394;2023-03-01T09:36:36;57.67;;;12.50;;
1747;SDS011;871;47.034;15.394;2023-03-01T09:39:02;56.60;;;11.67;;
1747;SDS011;871;47.034;15.394;2023-03-01T09:41:44;55.13;;;12.05;;
1747;SDS011;871;47.034;15.394;2023-03-01T09:44:26;54.38;;;13.88;;
1747;SDS011;871;47.034;15.394;2023-03-01T09:46:55;52.50;;;11.75;;
1747;SDS011;871;47.034;15.394;2023-03-01T09:49:29;52.03;;;11.68;;
1747;SDS011;871;47.034;15.394;2023-03-01T09:51:58;54.23;;;12.40;;
1747;SDS011;871;47.034;15.394;2023-03-01T09:54:25;50.63;;;10.50;;
1747;SDS011;871;47.034;15.394;2023-03-01T09:56:53;52.70;;;11.50;;
1747;SDS011;871;47.034;15.394;2023-03-01T09:59:43;53.45;;;12.55;;
1747;SDS011;871;47.034;15.394;2023-03-01T10:04:50;54.08;;;12.02;;
1747;SDS011;871;47.034;15.394;2023-03-01T10:07:30;52.78;;;13.02;;
1747;SDS011;871;47.034;15.394;2023-03-01T10:09:58;51.93;;;12.80;;
1747;SDS011;871;47.034;15.394;2023-03-01T10:12:33;53.87;;;11.70;;
1747;SDS011;871;47.034;15.394;2023-03-01T10:15:14;55.80;;;11.48;;
1747;SDS011;871;47.034;15.394;2023-03-01T10:17:48;55.43;;;12.20;;
1747;SDS011;871;47.034;15.394;2023-03-01T10:20:19;57.55;;;11.75;;
1747;SDS011;871;47.034;15.394;2023-03-01T10:22:45;52.80;;;12.18;;
1747;SDS011;871;47.034;15.394;2023-03-01T10:25:15;52.67;;;11.63;;
1747;SDS011;871;47.034;15.394;2023-03-01T10:27:53;58.27;;;13.37;;
1747;SDS011;871;47.034;15.394;2023-03-01T10:30:30;51.65;;;12.35;;
1747;SDS011;871;47.034;15.394;2023-03-01T10:32:58;52.33;;;11.13;;
1747;SDS011;871;47.034;15.394;2023-03-01T10:35:26;53.90;;;11.85;;
1747;SDS011;871;47.034;15.394;2023-03-01T10:38:11;53.27;;;13.87;;
1747;SDS011;871;47.034;15.394;2023-03-01T10:40:51;53.80;;;12.20;;
1747;SDS011;871;47.034;15.394;2023-03-01T10:43:18;54.30;;;13.43;;
1747;SDS011;871;47.034;15.394;2023-03-01T10:45:44;53.60;;;11.10;;
1747;SDS011;871;47.034;15.394;2023-03-01T10:50:40;55.95;;;13.52;;
1747;SDS011;871;47.034;15.394;2023-03-01T10:53:17;53.15;;;13.60;;
1747;SDS011;871;47.034;15.394;2023-03-01T10:55:47;56.22;;;14.30;;
1747;SDS011;871;47.034;15.394;2023-03-01T10:58:17;53.55;;;13.13;;
1747;SDS011;871;47.034;15.394;2023-03-01T11:00:51;51.85;;;12.35;;
1747;SDS011;871;47.034;15.394;2023-03-01T11:05:54;53.47;;;12.10;;
1747;SDS011;871;47.034;15.394;2023-03-01T11:08:30;54.80;;;12.27;;
1747;SDS011;871;47.034;15.394;2023-03-01T11:11:04;51.08;;;11.50;;
1747;SDS011;871;47.034;15.394;2023-03-01T11:13:30;58.90;;;12.67;;
1747;SDS011;871;47.034;15.394;2023-03-01T11:16:06;53.55;;;11.90;;
1747;SDS011;871;47.034;15.394;2023-03-01T11:18:33;58.50;;;13.40;;
1747;SDS011;871;47.034;15.394;2023-03-01T11:20:59;54.47;;;12.27;;
1747;SDS011;871;47.034;15.394;2023-03-01T11:23:27;52.13;;;12.00;;
1747;SDS011;871;47.034;15.394;2023-03-01T11:25:55;61.53;;;13.88;;
1747;SDS011;871;47.034;15.394;2023-03-01T11:28:22;53.97;;;11.80;;
1747;SDS011;871;47.034;15.394;2023-03-01T11:31:08;49.80;;;11.27;;
1747;SDS011;871;47.034;15.394;2023-03-01T11:33:39;55.58;;;11.73;;
1747;SDS011;871;47.034;15.394;2023-03-01T11:36:11;55.45;;;13.02;;
1747;SDS011;871;47.034;15.394;2023-03-01T11:38:39;53.57;;;13.13;;
1747;SDS011;871;47.034;15.394;2023-03-01T11:41:06;55.10;;;12.43;;
1747;SDS011;871;47.034;15.394;2023-03-01T11:43:50;56.40;;;12.17;;
1747;SDS011;871;47.034;15.394;2023-03-01T11:49:00;53.63;;;12.18;;
1747;SDS011;871;47.034;15.394;2023-03-01T11:56:52;53.40;;;12.07;;
1747;SDS011;871;47.034;15.394;2023-03-01T11:59:34;53.60;;;12.07;;
1747;SDS011;871;47.034;15.394;2023-03-01T12:07:20;62.13;;;13.23;;
1747;SDS011;871;47.034;15.394;2023-03-01T12:18:12;45.38;;;5.63;;
1747;SDS011;871;47.034;15.394;2023-03-01T12:33:57;49.70;;;10.33;;
1747;SDS011;871;47.034;15.394;2023-03-01T12:42:16;51.50;;;10.07;;
1747;SDS011;871;47.034;15.394;2023-03-01T12:47:41;55.87;;;10.17;;
1747;SDS011;871;47.034;15.394;2023-03-01T12:50:23;47.50;;;9.37;;
1747;SDS011;871;47.034;15.394;2023-03-01T12:52:51;49.13;;;9.52;;
1747;SDS011;871;47.034;15.394;2023-03-01T12:55:24;45.38;;;8.18;;
1747;SDS011;871;47.034;15.394;2023-03-01T12:58:02;48.00;;;8.67;;
1747;SDS011;871;47.034;15.394;2023-03-01T13:05:34;48.30;;;9.47;;
1747;SDS011;871;47.034;15.394;2023-03-01T13:10:33;47.83;;;10.40;;
1747;SDS011;871;47.034;15.394;2023-03-01T13:15:35;55.17;;;10.30;;
1747;SDS011;871;47.034;15.394;2023-03-01T13:20:49;54.20;;;11.00;;
1747;SDS011;871;47.034;15.394;2023-03-01T13:31:04;49.17;;;10.23;;
1747;SDS011;871;47.034;15.394;2023-03-01T13:35:58;49.90;;;9.20;;
1747;SDS011;871;47.034;15.394;2023-03-01T13:41:09;48.90;;;8.67;;
1747;SDS011;871;47.034;15.394;2023-03-01T13:43:37;50.20;;;10.83;;
1747;SDS011;871;47.034;15.394;2023-03-01T13:46:22;49.20;;;10.10;;
1747;SDS011;871;47.034;15.394;2023-03-01T13:48:53;51.60;;;11.60;;
1747;SDS011;871;47.034;15.394;2023-03-01T13:51:25;54.47;;;11.67;;
1747;SDS011;871;47.034;15.394;2023-03-01T13:53:51;57.33;;;11.33;;
1747;SDS011;871;47.034;15.394;2023-03-01T13:56:24;47.40;;;9.87;;
1747;SDS011;871;47.034;15.394;2023-03-01T14:01:21;57.20;;;11.03;;
1747;SDS011;871;47.034;15.394;2023-03-01T14:03:48;54.63;;;11.63;;
1747;SDS011;871;47.034;15.394;2023-03-01T14:06:16;50.60;;;10.30;;
1747;SDS011;871;47.034;15.394;2023-03-01T14:08:45;50.47;;;9.93;;
1747;SDS011;871;47.034;15.394;2023-03-01T14:19:29;47.10;;;9.10;;
1747;SDS011;871;47.034;15.394;2023-03-01T14:24:44;51.37;;;9.70;;
1747;SDS011;871;47.034;15.394;2023-03-01T14:27:12;49.50;;;8.90;;
1747;SDS011;871;47.034;15.394;2023-03-01T14:29:39;48.90;;;8.80;;
1747;SDS011;871;47.034;15.394;2023-03-01T14:32:15;51.30;;;9.63;;
1747;SDS011;871;47.034;15.394;2023-03-01T14:34:44;48.53;;;7.60;;
1747;SDS011;871;47.034;15.394;2023-03-01T14:37:11;47.47;;;8.60;;
1747;SDS011;871;47.034;15.394;2023-03-01T14:39:43;51.00;;;7.90;;
1747;SDS011;871;47.034;15.394;2023-03-01T14:42:09;57.80;;;10.33;;
1747;SDS011;871;47.034;15.394;2023-03-01T14:44:35;50.03;;;8.17;;
1747;SDS011;871;47.034;15.394;2023-03-01T14:47:02;48.97;;;8.67;;
1747;SDS011;871;47.034;15.394;2023-03-01T14:49:30;48.70;;;9.17;;
1747;SDS011;871;47.034;15.394;2023-03-01T14:52:07;52.30;;;10.70;;
1747;SDS011;871;47.034;15.394;2023-03-01T14:54:43;53.97;;;10.90;;
1747;SDS011;871;47.034;15.394;2023-03-01T14:57:14;52.50;;;10.60;;
1747;SDS011;871;47.034;15.394;2023-03-01T14:59:40;51.30;;;9.17;;
1747;SDS011;871;47.034;15.394;2023-03-01T15:02:14;55.40;;;12.20;;
1747;SDS011;871;47.034;15.394;2023-03-01T15:04:42;55.27;;;10.67;;
1747;SDS011;871;47.034;15.394;2023-03-01T15:07:09;53.67;;;10.07;;
1747;SDS011;871;47.034;15.394;2023-03-01T15:09:40;52.53;;;12.43;;
1747;SDS011;871;47.034;15.394;2023-03-01T15:14:52;54.75;;;10.73;;
1747;SDS011;871;47.034;15.394;2023-03-01T15:17:40;51.80;;;10.30;;
1747;SDS011;871;47.034;15.394;2023-03-01T15:20:18;54.10;;;11.50;;
1747;SDS011;871;47.034;15.394;2023-03-01T15:22:51;57.23;;;14.90;;
1747;SDS011;871;47.034;15.394;2023-03-01T15:25:18;57.42;;;11.93;;
1747;SDS011;871;47.034;15.394;2023-03-01T15:27:46;51.80;;;10.60;;
1747;SDS011;871;47.034;15.394;2023-03-01T15:30:35;48.22;;;9.23;;
1747;SDS011;871;47.034;15.394;2023-03-01T15:33:47;52.93;;;9.50;;
1747;SDS011;871;47.034;15.394;2023-03-01T15:35:50;52.55;;;10.00;;
1747;SDS011;871;47.034;15.394;2023-03-01T15:38:26;53.83;;;10.27;;
1747;SDS011;871;47.034;15.394;2023-03-01T15:40:52;56.83;;;12.23;;
1747;SDS011;871;47.034;15.394;2023-03-01T15:46:05;53.90;;;11.83;;
1747;SDS011;871;47.034;15.394;2023-03-01T15:48:31;58.78;;;13.73;;
1747;SDS011;871;47.034;15.394;2023-03-01T15:50:58;54.33;;;10.43;;
1747;SDS011;871;47.034;15.394;2023-03-01T15:53:24;49.67;;;10.20;;
1747;SDS011;871;47.034;15.394;2023-03-01T15:55:50;50.10;;;9.53;;
1747;SDS011;871;47.034;15.394;2023-03-01T15:58:18;51.67;;;10.17;;
1747;SDS011;871;47.034;15.394;2023-03-01T16:00:45;53.80;;;11.60;;
1747;SDS011;871;47.034;15.394;2023-03-01T16:03:13;53.13;;;11.18;;
1747;SDS011;871;47.034;15.394;2023-03-01T16:05:41;54.90;;;10.13;;
1747;SDS011;871;47.034;15.394;2023-03-01T16:08:09;52.90;;;12.43;;
1747;SDS011;871;47.034;15.394;2023-03-01T16:10:35;57.00;;;13.02;;
1747;SDS011;871;47.034;15.394;2023-03-01T16:13:01;56.00;;;14.73;;
1747;SDS011;871;47.034;15.394;2023-03-01T16:15:32;52.93;;;11.67;;
1747;SDS011;871;47.034;15.394;2023-03-01T16:18:03;52.92;;;10.88;;
1747;SDS011;871;47.034;15.394;2023-03-01T16:20:30;58.58;;;13.23;;
1747;SDS011;871;47.034;15.394;2023-03-01T16:23:00;55.07;;;13.33;;
1747;SDS011;871;47.034;15.394;2023-03-01T16:25:27;53.45;;;13.20;;
1747;SDS011;871;47.034;15.394;2023-03-01T16:27:55;54.70;;;12.10;;
1747;SDS011;871;47.034;15.394;2023-03-01T16:30:23;57.72;;;11.65;;
1747;SDS011;871;47.034;15.394;2023-03-01T16:32:49;58.07;;;12.30;;
1747;SDS011;871;47.034;15.394;2023-03-01T16:35:16;50.07;;;11.70;;
1747;SDS011;871;47.034;15.394;2023-03-01T16:37:44;64.13;;;13.03;;
1747;SDS011;871;47.034;15.394;2023-03-01T16:40:16;53.43;;;13.47;;
1747;SDS011;871;47.034;15.394;2023-03-01T16:42:43;56.33;;;12.38;;
1747;SDS011;871;47.034;15.394;2023-03-01T16:45:10;52.63;;;11.83;;
1747;SDS011;871;47.034;15.394;2023-03-01T16:47:36;61.00;;;13.17;;
1747;SDS011;871;47.034;15.394;2023-03-01T16:50:04;58.20;;;13.00;;
1747;SDS011;871;47.034;15.394;2023-03-01T16:52:31;52.03;;;11.90;;
1747;SDS011;871;47.034;15.394;2023-03-01T16:54:58;56.27;;;13.57;;
1747;SDS011;871;47.034;15.394;2023-03-01T16:57:26;53.23;;;12.90;;
1747;SDS011;871;47.034;15.394;2023-03-01T16:59:53;58.27;;;13.63;;
1747;SDS011;871;47.034;15.394;2023-03-01T17:02:19;60.20;;;13.13;;
1747;SDS011;871;47.034;15.394;2023-03-01T17:04:52;53.90;;;13.52;;
1747;SDS011;871;47.034;15.394;2023-03-01T17:07:19;59.47;;;16.65;;
1747;SDS011;871;47.034;15.394;2023-03-01T17:09:45;58.55;;;15.02;;
1747;SDS011;871;47.034;15.394;2023-03-01T17:12:11;63.17;;;16.40;;
1747;SDS011;871;47.034;15.394;2023-03-01T17:14:38;59.80;;;16.73;;
1747;SDS011;871;47.034;15.394;2023-03-01T17:17:08;57.15;;;14.98;;
1747;SDS011;871;47.034;15.394;2023-03-01T17:19:34;60.55;;;16.77;;
1747;SDS011;871;47.034;15.394;2023-03-01T17:22:03;59.15;;;14.93;;
1747;SDS011;871;47.034;15.394;2023-03-01T17:24:36;59.65;;;16.70;;
1747;SDS011;871;47.034;15.394;2023-03-01T17:27:02;69.87;;;19.07;;
1747;SDS011;871;47.034;15.394;2023-03-01T17:29:28;63.67;;;18.02;;
1747;SDS011;871;47.034;15.394;2023-03-01T17:31:55;68.53;;;17.00;;
1747;SDS011;871;47.034;15.394;2023-03-01T17:34:21;62.92;;;15.77;;
1747;SDS011;871;47.034;15.394;2023-03-01T17:36:49;58.33;;;17.02;;
1747;SDS011;871;47.034;15.394;2023-03-01T17:39:16;58.80;;;17.85;;
1747;SDS011;871;47.034;15.394;2023-03-01T17:41:44;61.13;;;17.00;;
1747;SDS011;871;47.034;15.394;2023-03-01T17:44:11;66.70;;;17.10;;
1747;SDS011;871;47.034;15.394;2023-03-01T17:46:37;61.85;;;15.93;;
1747;SDS011;871;47.034;15.394;2023-03-01T17:49:03;59.22;;;16.90;;
1747;SDS011;871;47.034;15.394;2023-03-01T17:51:29;58.92;;;15.95;;
1747;SDS011;871;47.034;15.394;2023-03-01T17:53:55;59.07;;;16.27;;
1747;SDS011;871;47.034;15.394;2023-03-01T17:56:22;61.70;;;16.48;;
1747;SDS011;871;47.034;15.394;2023-03-01T17:58:48;62.65;;;16.00;;
1747;SDS011;871;47.034;15.394;2023-03-01T18:01:17;69.53;;;16.90;;
1747;SDS011;871;47.034;15.394;2023-03-01T18:03:44;66.63;;;17.05;;
1747;SDS011;871;47.034;15.394;2023-03-01T18:06:12;61.53;;;16.33;;
1747;SDS011;871;47.034;15.394;2023-03-01T18:08:39;63.63;;;18.63;;
1747;SDS011;871;47.034;15.394;2023-03-01T18:11:06;63.85;;;15.98;;
1747;SDS011;871;47.034;15.394;2023-03-01T18:13:33;65.47;;;16.42;;
1747;SDS011;871;47.034;15.394;2023-03-01T18:15:59;69.68;;;18.05;;
1747;SDS011;871;47.034;15.394;2023-03-01T18:18:29;68.30;;;16.35;;
1747;SDS011;871;47.034;15.394;2023-03-01T18:20:57;71.15;;;18.70;;
1747;SDS011;871;47.034;15.394;2023-03-01T18:23:25;61.50;;;18.10;;
1747;SDS011;871;47.034;15.394;2023-03-01T18:25:56;60.35;;;17.75;;
1747;SDS011;871;47.034;15.394;2023-03-01T18:28:22;64.68;;;17.75;;
1747;SDS011;871;47.034;15.394;2023-03-01T18:30:54;62.83;;;16.27;;
1747;SDS011;871;47.034;15.394;2023-03-01T18:33:24;64.20;;;17.10;;
1747;SDS011;871;47.034;15.394;2023-03-01T18:35:50;66.97;;;16.02;;
1747;SDS011;871;47.034;15.394;2023-03-01T18:38:19;60.78;;;17.48;;
1747;SDS011;871;47.034;15.394;2023-03-01T18:40:50;66.68;;;18.92;;
1747;SDS011;871;47.034;15.394;2023-03-01T18:43:16;63.15;;;16.02;;
1747;SDS011;871;47.034;15.394;2023-03-01T18:45:43;60.05;;;17.63;;
1747;SDS011;871;47.034;15.394;2023-03-01T18:48:13;67.03;;;19.05;;
1747;SDS011;871;47.034;15.394;2023-03-01T18:50:41;68.05;;;17.95;;
1747;SDS011;871;47.034;15.394;2023-03-01T18:53:08;62.25;;;18.27;;
1747;SDS011;871;47.034;15.394;2023-03-01T18:55:37;65.75;;;15.82;;
1747;SDS011;871;47.034;15.394;2023-03-01T18:58:04;58.33;;;14.23;;
1747;SDS011;871;47.034;15.394;2023-03-01T19:00:31;59.88;;;16.52;;
1747;SDS011;871;47.034;15.394;2023-03-01T19:02:58;60.33;;;17.35;;
1747;SDS011;871;47.034;15.394;2023-03-01T19:05:26;59.15;;;15.15;;
1747;SDS011;871;47.034;15.394;2023-03-01T19:07:52;63.13;;;16.17;;
1747;SDS011;871;47.034;15.394;2023-03-01T19:10:19;59.42;;;16.45;;
1747;SDS011;871;47.034;15.394;2023-03-01T19:12:45;58.95;;;17.40;;
1747;SDS011;871;47.034;15.394;2023-03-01T19:15:12;67.38;;;18.80;;
1747;SDS011;871;47.034;15.394;2023-03-01T19:17:41;61.95;;;16.98;;
1747;SDS011;871;47.034;15.394;2023-03-01T19:20:10;62.90;;;15.65;;
1747;SDS011;871;47.034;15.394;2023-03-01T19:22:37;63.10;;;14.90;;
1747;SDS011;871;47.034;15.394;2023-03-01T19:25:03;69.40;;;18.08;;
1747;SDS011;871;47.034;15.394;2023-03-01T19:27:30;66.82;;;18.63;;
1747;SDS011;871;47.034;15.394;2023-03-01T19:29:56;60.50;;;16.85;;
1747;SDS011;871;47.034;15.394;2023-03-01T19:32:22;70.50;;;16.95;;
1747;SDS011;871;47.034;15.394;2023-03-01T19:34:50;60.17;;;17.35;;
1747;SDS011;871;47.034;15.394;2023-03-01T19:37:16;61.20;;;17.35;;
1747;SDS011;871;47.034;15.394;2023-03-01T19:39:43;71.53;;;20.45;;
1747;SDS011;871;47.034;15.394;2023-03-01T19:42:09;94.00;;;21.30;;
1747;SDS011;871;47.034;15.394;2023-03-01T19:44:36;67.80;;;20.02;;
1747;SDS011;871;47.034;15.394;2023-03-01T19:47:05;66.57;;;19.90;;
1747;SDS011;871;47.034;15.394;2023-03-01T19:49:31;64.65;;;16.58;;
1747;SDS011;871;47.034;15.394;2023-03-01T19:52:01;61.53;;;16.95;;
1747;SDS011;871;47.034;15.394;2023-03-01T19:54:28;60.95;;;18.52;;
1747;SDS011;871;47.034;15.394;2023-03-01T19:56:55;61.60;;;19.50;;
1747;SDS011;871;47.034;15.394;2023-03-01T19:59:21;67.20;;;17.90;;
1747;SDS011;871;47.034;15.394;2023-03-01T20:01:51;62.78;;;18.58;;
1747;SDS011;871;47.034;15.394;2023-03-01T20:04:18;58.75;;;16.48;;
1747;SDS011;871;47.034;15.394;2023-03-01T20:06:45;63.50;;;19.80;;
1747;SDS011;871;47.034;15.394;2023-03-01T20:09:11;61.60;;;17.92;;
1747;SDS011;871;47.034;15.394;2023-03-01T20:11:39;58.85;;;17.58;;
1747;SDS011;871;47.034;15.394;2023-03-01T20:14:07;67.43;;;18.63;;
1747;SDS011;871;47.034;15.394;2023-03-01T20:16:35;55.30;;;13.70;;
1747;SDS011;871;47.034;15.394;2023-03-01T20:19:01;61.15;;;17.60;;
1747;SDS011;871;47.034;15.394;2023-03-01T20:21:27;61.15;;;17.10;;
1747;SDS011;871;47.034;15.394;2023-03-01T20:23:59;60.40;;;15.25;;
1747;SDS011;871;47.034;15.394;2023-03-01T20:26:26;57.50;;;15.30;;
1747;SDS011;871;47.034;15.394;2023-03-01T20:28:54;65.57;;;17.90;;
1747;SDS011;871;47.034;15.394;2023-03-01T20:31:21;64.50;;;17.60;;
1747;SDS011;871;47.034;15.394;2023-03-01T20:33:53;59.35;;;15.93;;
1747;SDS011;871;47.034;15.394;2023-03-01T20:36:21;63.88;;;17.52;;
1747;SDS011;871;47.034;15.394;2023-03-01T20:38:50;55.03;;;14.30;;
1747;SDS011;871;47.034;15.394;2023-03-01T20:41:17;56.60;;;15.30;;
1747;SDS011;871;47.034;15.394;2023-03-01T20:43:43;55.78;;;14.93;;
1747;SDS011;871;47.034;15.394;2023-03-01T20:46:17;57.22;;;14.02;;
1747;SDS011;871;47.034;15.394;2023-03-01T20:48:44;58.78;;;16.42;;
1747;SDS011;871;47.034;15.394;2023-03-01T20:51:12;54.53;;;13.88;;
1747;SDS011;871;47.034;15.394;2023-03-01T20:53:38;56.10;;;14.43;;
1747;SDS011;871;47.034;15.394;2023-03-01T20:56:06;55.17;;;13.73;;
1747;SDS011;871;47.034;15.394;2023-03-01T20:58:35;56.88;;;14.95;;
1747;SDS011;871;47.034;15.394;2023-03-01T21:01:02;52.15;;;13.25;;
1747;SDS011;871;47.034;15.394;2023-03-01T21:03:29;52.17;;;13.90;;
1747;SDS011;871;47.034;15.394;2023-03-01T21:05:57;58.13;;;13.95;;
1747;SDS011;871;47.034;15.394;2023-03-01T21:08:23;55.72;;;12.52;;
1747;SDS011;871;47.034;15.394;2023-03-01T21:10:50;58.77;;;15.00;;
1747;SDS011;871;47.034;15.394;2023-03-01T21:13:17;64.27;;;15.00;;
1747;SDS011;871;47.034;15.394;2023-03-01T21:15:52;59.63;;;14.52;;
1747;SDS011;871;47.034;15.394;2023-03-01T21:18:21;57.13;;;13.15;;
1747;SDS011;871;47.034;15.394;2023-03-01T21:20:47;63.70;;;16.98;;
1747;SDS011;871;47.034;15.394;2023-03-01T21:23:15;60.70;;;17.63;;
1747;SDS011;871;47.034;15.394;2023-03-01T21:25:43;62.13;;;18.60;;
1747;SDS011;871;47.034;15.394;2023-03-01T21:28:09;60.13;;;15.80;;
1747;SDS011;871;47.034;15.394;2023-03-01T21:30:35;65.18;;;15.55;;
1747;SDS011;871;47.034;15.394;2023-03-01T21:33:02;57.95;;;14.93;;